createdAt,value
2023-12-13T00:00:16.879Z,-0.65
2023-12-13T00:01:43.574Z,-0.63
2023-12-13T00:02:49.954Z,-0.61
2023-12-13T00:03:56.675Z,-0.60
2023-12-13T00:05:03.867Z,-0.59
2023-12-13T00:06:10.239Z,-0.58
2023-12-13T00:07:16.677Z,-0.59
2023-12-13T00:08:23.149Z,-0.58
2023-12-13T00:09:29.618Z,-0.59
2023-12-13T00:10:36.235Z,-0.59
2023-12-13T00:11:42.549Z,-0.60
2023-12-13T00:12:49.115Z,-0.60
2023-12-13T00:13:55.787Z,-0.61
2023-12-13T00:15:02.108Z,-0.61
2023-12-13T00:16:10.231Z,-0.60
2023-12-13T00:17:16.568Z,-0.60
2023-12-13T00:18:23.295Z,-0.60
2023-12-13T00:19:29.523Z,-0.61
2023-12-13T00:20:38.743Z,-0.61
2023-12-13T00:21:45.420Z,-0.62
2023-12-13T00:22:52.268Z,-0.63
2023-12-13T00:23:58.696Z,-0.63
2023-12-13T00:25:05.849Z,-0.65
2023-12-13T00:26:17.281Z,-0.66
2023-12-13T00:27:24.069Z,-0.68
2023-12-13T00:28:30.981Z,-0.68
2023-12-13T00:29:38.154Z,-0.69
2023-12-13T00:30:46.472Z,-0.71
2023-12-13T00:31:53.064Z,-0.72
2023-12-13T00:32:59.397Z,-0.70
2023-12-13T00:34:06.686Z,-0.69
2023-12-13T00:35:13.336Z,-0.69
2023-12-13T00:36:19.601Z,-0.69
2023-12-13T00:37:25.993Z,-0.71
2023-12-13T00:38:32.284Z,-0.73
2023-12-13T00:39:38.756Z,-0.75
2023-12-13T00:40:46.569Z,-0.76
2023-12-13T00:41:53.255Z,-0.78
2023-12-13T00:42:59.606Z,-0.79
2023-12-13T00:44:06.146Z,-0.80
2023-12-13T00:45:13.412Z,-0.81
2023-12-13T00:46:24.034Z,-0.81
2023-12-13T00:47:30.823Z,-0.80
2023-12-13T00:48:37.618Z,-0.81
2023-12-13T00:49:44.069Z,-0.81
2023-12-13T00:50:50.752Z,-0.83
2023-12-13T00:51:57.242Z,-0.85
2023-12-13T00:53:03.796Z,-0.86
2023-12-13T00:54:09.972Z,-0.85
2023-12-13T00:55:16.344Z,-0.83
2023-12-13T00:56:22.600Z,-0.83
2023-12-13T00:57:28.901Z,-0.84
2023-12-13T00:58:35.192Z,-0.85
2023-12-13T00:59:41.426Z,-0.86
2023-12-13T01:00:47.948Z,-0.88
2023-12-13T01:01:54.531Z,-0.89
2023-12-13T01:03:01.097Z,-0.91
2023-12-13T01:04:07.997Z,-0.90
2023-12-13T01:05:14.539Z,-0.88
2023-12-13T01:06:20.888Z,-0.85
2023-12-13T01:07:27.275Z,-0.83
2023-12-13T01:08:33.628Z,-0.82
2023-12-13T01:09:42.513Z,-0.81
2023-12-13T01:10:49.029Z,-0.82
2023-12-13T01:11:55.378Z,-0.84
2023-12-13T01:13:02.398Z,-0.86
2023-12-13T01:14:08.982Z,-0.89
2023-12-13T01:15:15.989Z,-0.91
2023-12-13T01:16:22.256Z,-0.92
2023-12-13T01:17:28.478Z,-0.93
2023-12-13T01:18:34.899Z,-0.92
2023-12-13T01:19:41.332Z,-0.91
2023-12-13T01:20:48.040Z,-0.89
2023-12-13T01:21:54.851Z,-0.85
2023-12-13T01:23:01.365Z,-0.82
2023-12-13T01:24:08.196Z,-0.80
2023-12-13T01:25:14.867Z,-0.74
2023-12-13T01:26:21.091Z,-0.70
2023-12-13T01:27:27.396Z,-0.67
2023-12-13T01:28:34.061Z,-0.65
2023-12-13T01:29:40.356Z,-0.64
2023-12-13T01:30:46.797Z,-0.64
2023-12-13T01:31:53.448Z,-0.64
2023-12-13T01:33:04.060Z,-0.65
2023-12-13T01:34:11.108Z,-0.63
2023-12-13T01:35:17.533Z,-0.63
2023-12-13T01:36:24.253Z,-0.61
2023-12-13T01:37:31.433Z,-0.61
2023-12-13T01:38:38.139Z,-0.60
2023-12-13T01:39:45.308Z,-0.61
2023-12-13T01:41:11.165Z,-0.61
2023-12-13T01:42:20.346Z,-0.61
2023-12-13T01:43:27.442Z,-0.61
2023-12-13T01:44:33.787Z,-0.60
2023-12-13T01:45:40.142Z,-0.61
2023-12-13T01:46:48.031Z,-0.62
2023-12-13T01:47:54.953Z,-0.63
2023-12-13T01:49:02.889Z,-0.67
2023-12-13T01:50:11.223Z,-0.74
2023-12-13T01:51:18.574Z,-0.82
2023-12-13T01:52:25.115Z,-0.88
2023-12-13T01:53:33.211Z,-0.95
2023-12-13T01:54:40.681Z,-0.99
2023-12-13T01:55:47.906Z,-1.00
2023-12-13T01:56:54.617Z,-1.03
2023-12-13T01:58:01.484Z,-1.04
2023-12-13T01:59:07.932Z,-1.06
2023-12-13T02:00:16.974Z,-1.07
2023-12-13T02:01:23.429Z,-1.08
2023-12-13T02:02:30.434Z,-1.10
2023-12-13T02:03:38.365Z,-1.11
2023-12-13T02:04:46.089Z,-1.13
2023-12-13T02:05:53.380Z,-1.13
2023-12-13T02:07:00.014Z,-1.11
2023-12-13T02:08:07.566Z,-1.10
2023-12-13T02:09:14.316Z,-1.07
2023-12-13T02:10:21.888Z,-1.06
2023-12-13T02:11:29.107Z,-1.03
2023-12-13T02:12:36.176Z,-1.01
2023-12-13T02:13:43.386Z,-0.99
2023-12-13T02:14:49.756Z,-0.97
2023-12-13T02:15:56.519Z,-0.93
2023-12-13T02:17:03.450Z,-0.90
2023-12-13T02:18:17.194Z,-0.87
2023-12-13T02:19:23.542Z,-0.84
2023-12-13T02:20:30.504Z,-0.81
2023-12-13T02:21:36.741Z,-0.77
2023-12-13T02:22:43.254Z,-0.75
2023-12-13T02:23:52.693Z,-0.73
2023-12-13T02:24:59.949Z,-0.71
2023-12-13T02:26:07.555Z,-0.68
2023-12-13T02:27:14.601Z,-0.67
2023-12-13T02:28:22.151Z,-0.65
2023-12-13T02:29:28.707Z,-0.64
2023-12-13T02:30:35.243Z,-0.64
2023-12-13T02:31:45.183Z,-0.62
2023-12-13T02:32:51.659Z,-0.61
2023-12-13T02:33:58.362Z,-0.59
2023-12-13T02:35:05.062Z,-0.58
2023-12-13T02:36:12.094Z,-0.59
2023-12-13T02:37:18.392Z,-0.60
2023-12-13T02:38:25.899Z,-0.61
2023-12-13T02:39:32.668Z,-0.61
2023-12-13T02:40:39.149Z,-0.59
2023-12-13T02:41:45.831Z,-0.57
2023-12-13T02:42:52.054Z,-0.54
2023-12-13T02:43:58.288Z,-0.52
2023-12-13T02:45:05.168Z,-0.50
2023-12-13T02:46:11.525Z,-0.48
2023-12-13T02:47:17.736Z,-0.47
2023-12-13T02:48:28.908Z,-0.47
2023-12-13T02:49:35.719Z,-0.47
2023-12-13T02:50:42.286Z,-0.47
2023-12-13T02:51:48.638Z,-0.46
2023-12-13T02:52:55.319Z,-0.45
2023-12-13T02:54:01.892Z,-0.42
2023-12-13T02:55:13.099Z,-0.40
2023-12-13T02:56:19.733Z,-0.37
2023-12-13T02:57:26.108Z,-0.34
2023-12-13T02:58:32.719Z,-0.33
2023-12-13T02:59:38.820Z,-0.31
2023-12-13T03:00:45.411Z,-0.29
2023-12-13T03:01:51.862Z,-0.27
2023-12-13T03:02:59.060Z,-0.25
2023-12-13T03:04:05.840Z,-0.25
2023-12-13T03:05:12.608Z,-0.23
2023-12-13T03:06:19.596Z,-0.22
2023-12-13T03:07:26.639Z,-0.21
2023-12-13T03:08:33.418Z,-0.20
2023-12-13T03:09:41.156Z,-0.18
2023-12-13T03:10:47.769Z,-0.15
2023-12-13T03:11:54.659Z,-0.13
2023-12-13T03:13:02.368Z,-0.11
2023-12-13T03:14:09.217Z,-0.10
2023-12-13T03:15:16.361Z,-0.07
2023-12-13T03:16:24.814Z,-0.06
2023-12-13T03:17:31.694Z,-0.05
2023-12-13T03:18:39.459Z,-0.05
2023-12-13T03:19:46.482Z,-0.04
2023-12-13T03:20:56.074Z,-0.04
2023-12-13T03:22:04.376Z,-0.03
2023-12-13T03:23:11.620Z,-0.04
2023-12-13T03:24:18.045Z,-0.04
2023-12-13T03:25:24.622Z,-0.05
2023-12-13T03:26:31.398Z,-0.05
2023-12-13T03:27:38.672Z,-0.05
2023-12-13T03:28:45.534Z,-0.03
2023-12-13T03:29:52.218Z,-0.03
2023-12-13T03:30:59.113Z,-0.04
2023-12-13T03:32:07.110Z,-0.03
2023-12-13T03:33:13.965Z,-0.02
2023-12-13T03:34:20.587Z,-0.01
2023-12-13T03:35:27.553Z,-0.00
2023-12-13T03:36:34.084Z,-0.00
2023-12-13T03:37:41.502Z,-0.01
2023-12-13T03:38:48.234Z,-0.01
2023-12-13T03:39:54.740Z,-0.02
2023-12-13T03:41:01.686Z,-0.03
2023-12-13T03:42:08.234Z,-0.03
2023-12-13T03:43:14.573Z,-0.02
2023-12-13T03:44:21.143Z,-0.00
2023-12-13T03:45:28.223Z,0.02
2023-12-13T03:46:36.110Z,0.04
2023-12-13T03:47:44.250Z,0.06
2023-12-13T03:48:51.145Z,0.08
2023-12-13T03:49:57.959Z,0.09
2023-12-13T03:51:06.023Z,0.10
2023-12-13T03:52:12.632Z,0.10
2023-12-13T03:53:18.783Z,0.11
2023-12-13T03:54:25.413Z,0.12
2023-12-13T03:55:31.678Z,0.12
2023-12-13T03:56:38.313Z,0.10
2023-12-13T03:57:44.829Z,0.10
2023-12-13T03:58:51.261Z,0.09
2023-12-13T03:59:57.860Z,0.08
2023-12-13T04:01:04.502Z,0.07
2023-12-13T04:02:10.796Z,0.07
2023-12-13T04:03:17.298Z,0.08
2023-12-13T04:04:23.842Z,0.07
2023-12-13T04:05:30.783Z,0.05
2023-12-13T04:06:37.209Z,0.05
2023-12-13T04:07:43.897Z,0.05
2023-12-13T04:08:50.534Z,0.05
2023-12-13T04:09:57.023Z,0.04
2023-12-13T04:11:03.669Z,0.02
2023-12-13T04:12:11.126Z,-0.01
2023-12-13T04:13:17.765Z,-0.02
2023-12-13T04:14:24.288Z,-0.04
2023-12-13T04:15:30.832Z,-0.06
2023-12-13T04:16:36.935Z,-0.06
2023-12-13T04:17:43.714Z,-0.06
2023-12-13T04:18:52.947Z,-0.06
2023-12-13T04:19:59.866Z,-0.06
2023-12-13T04:21:07.299Z,-0.07
2023-12-13T04:22:13.909Z,-0.08
2023-12-13T04:23:20.646Z,-0.10
2023-12-13T04:24:26.982Z,-0.11
2023-12-13T04:25:33.196Z,-0.11
2023-12-13T04:26:39.839Z,-0.12
2023-12-13T04:27:48.723Z,-0.14
2023-12-13T04:28:55.422Z,-0.14
2023-12-13T04:30:02.082Z,-0.16
2023-12-13T04:31:09.160Z,-0.18
2023-12-13T04:32:15.598Z,-0.22
2023-12-13T04:33:22.092Z,-0.25
2023-12-13T04:34:28.801Z,-0.28
2023-12-13T04:35:35.275Z,-0.29
2023-12-13T04:36:41.921Z,-0.31
2023-12-13T04:37:48.670Z,-0.32
2023-12-13T04:38:55.604Z,-0.32
2023-12-13T04:40:02.480Z,-0.31
2023-12-13T04:41:09.536Z,-0.30
2023-12-13T04:42:16.002Z,-0.28
2023-12-13T04:43:23.095Z,-0.25
2023-12-13T04:44:29.827Z,-0.23
2023-12-13T04:45:36.462Z,-0.21
2023-12-13T04:46:44.437Z,-0.20
2023-12-13T04:47:50.957Z,-0.17
2023-12-13T04:49:02.393Z,-0.15
2023-12-13T04:50:10.809Z,-0.12
2023-12-13T04:51:17.318Z,-0.09
2023-12-13T04:52:24.253Z,-0.07
2023-12-13T04:53:31.212Z,-0.04
2023-12-13T04:54:38.559Z,-0.02
2023-12-13T04:55:44.833Z,-0.01
2023-12-13T04:56:51.318Z,-0.01
2023-12-13T04:57:57.837Z,0.01
2023-12-13T04:59:04.292Z,0.02
2023-12-13T05:00:12.678Z,0.03
2023-12-13T05:01:18.949Z,0.03
2023-12-13T05:02:25.394Z,0.03
2023-12-13T05:03:31.982Z,0.02
2023-12-13T05:04:38.748Z,0.00
2023-12-13T05:05:45.437Z,0.02
2023-12-13T05:06:51.902Z,-0.00
2023-12-13T05:07:58.540Z,0.01
2023-12-13T05:09:05.063Z,-0.00
2023-12-13T05:10:12.400Z,0.00
2023-12-13T05:11:20.289Z,0.01
2023-12-13T05:12:26.573Z,0.01
2023-12-13T05:13:33.185Z,0.02
2023-12-13T05:14:39.844Z,0.02
2023-12-13T05:15:46.169Z,0.03
2023-12-13T05:16:52.702Z,0.04
2023-12-13T05:17:59.228Z,0.04
2023-12-13T05:19:06.041Z,0.04
2023-12-13T05:20:13.326Z,0.03
2023-12-13T05:21:19.774Z,0.03
2023-12-13T05:22:26.902Z,0.03
2023-12-13T05:23:33.341Z,0.03
2023-12-13T05:24:40.005Z,0.03
2023-12-13T05:25:46.756Z,0.03
2023-12-13T05:26:53.337Z,0.04
2023-12-13T05:27:59.785Z,0.05
2023-12-13T05:29:06.814Z,0.06
2023-12-13T05:30:14.650Z,0.05
2023-12-13T05:31:25.306Z,0.06
2023-12-13T05:32:31.775Z,0.07
2023-12-13T05:33:39.689Z,0.08
2023-12-13T05:34:46.155Z,0.08
2023-12-13T05:35:52.979Z,0.09
2023-12-13T05:36:59.252Z,0.10
2023-12-13T05:38:06.012Z,0.10
2023-12-13T05:39:12.856Z,0.11
2023-12-13T05:40:19.236Z,0.12
2023-12-13T05:41:25.777Z,0.13
2023-12-13T05:42:34.818Z,0.14
2023-12-13T05:43:41.749Z,0.13
2023-12-13T05:44:48.305Z,0.14
2023-12-13T05:45:56.013Z,0.14
2023-12-13T05:47:02.744Z,0.15
2023-12-13T05:48:09.724Z,0.15
2023-12-13T05:49:19.346Z,0.14
2023-12-13T05:50:26.316Z,0.13
2023-12-13T05:51:33.455Z,0.13
2023-12-13T05:52:40.721Z,0.12
2023-12-13T05:53:47.373Z,0.13
2023-12-13T05:54:53.838Z,0.12
2023-12-13T05:56:02.197Z,0.11
2023-12-13T05:57:08.653Z,0.11
2023-12-13T05:58:16.077Z,0.10
2023-12-13T05:59:22.769Z,0.09
2023-12-13T06:00:32.125Z,0.10
2023-12-13T06:01:39.381Z,0.11
2023-12-13T06:02:55.307Z,0.13
2023-12-13T06:04:03.894Z,0.14
2023-12-13T06:05:12.561Z,0.15
2023-12-13T06:06:20.292Z,0.15
2023-12-13T06:07:26.742Z,0.15
2023-12-13T06:08:33.817Z,0.19
2023-12-13T06:09:41.357Z,0.23
2023-12-13T06:10:48.060Z,0.30
2023-12-13T06:11:54.698Z,0.36
2023-12-13T06:13:00.892Z,0.38
2023-12-13T06:14:07.160Z,0.42
2023-12-13T06:15:14.043Z,0.45
2023-12-13T06:16:20.559Z,0.49
2023-12-13T06:17:27.215Z,0.54
2023-12-13T06:18:34.093Z,0.59
2023-12-13T06:19:41.985Z,0.66
2023-12-13T06:20:48.249Z,0.74
2023-12-13T06:21:56.394Z,0.83
2023-12-13T06:23:03.644Z,0.93
2023-12-13T06:24:10.337Z,1.00
2023-12-13T06:25:17.597Z,1.05
2023-12-13T06:26:25.115Z,1.10
2023-12-13T06:27:31.836Z,1.17
2023-12-13T06:28:38.351Z,1.24
2023-12-13T06:29:45.293Z,1.28
2023-12-13T06:30:52.393Z,1.34
2023-12-13T06:31:59.003Z,1.38
2023-12-13T06:33:06.219Z,1.42
2023-12-13T06:34:12.747Z,1.45
2023-12-13T06:35:19.209Z,1.51
2023-12-13T06:36:25.870Z,1.54
2023-12-13T06:37:33.476Z,1.57
2023-12-13T06:38:39.996Z,1.60
2023-12-13T06:39:48.254Z,1.65
2023-12-13T06:40:56.514Z,1.68
2023-12-13T06:42:03.921Z,1.69
2023-12-13T06:43:11.118Z,1.72
2023-12-13T06:44:17.965Z,1.74
2023-12-13T06:45:24.194Z,1.75
2023-12-13T06:46:30.667Z,1.77
2023-12-13T06:47:37.579Z,1.79
2023-12-13T06:48:44.732Z,1.84
2023-12-13T06:49:51.178Z,1.91
2023-12-13T06:50:58.293Z,1.99
2023-12-13T06:52:05.383Z,2.05
2023-12-13T06:53:12.195Z,2.11
2023-12-13T06:54:19.768Z,2.14
2023-12-13T06:55:26.485Z,2.15
2023-12-13T06:56:33.048Z,2.13
2023-12-13T06:57:40.421Z,2.08
2023-12-13T06:58:47.359Z,2.02
2023-12-13T06:59:54.611Z,1.99
2023-12-13T07:01:00.946Z,1.96
2023-12-13T07:02:08.364Z,1.95
2023-12-13T07:03:14.972Z,1.93
2023-12-13T07:04:21.785Z,1.93
2023-12-13T07:05:28.200Z,1.92
2023-12-13T07:06:35.268Z,1.94
2023-12-13T07:07:41.490Z,1.96
2023-12-13T07:08:48.103Z,1.99
2023-12-13T07:09:55.585Z,2.03
2023-12-13T07:11:04.800Z,2.05
2023-12-13T07:12:11.940Z,2.09
2023-12-13T07:13:18.881Z,2.10
2023-12-13T07:14:26.734Z,2.12
2023-12-13T07:15:33.310Z,2.15
2023-12-13T07:16:39.880Z,2.16
2023-12-13T07:17:46.331Z,2.16
2023-12-13T07:18:53.557Z,2.15
2023-12-13T07:20:01.202Z,2.17
2023-12-13T07:21:09.671Z,2.18
2023-12-13T07:22:16.140Z,2.19
2023-12-13T07:23:22.911Z,2.19
2023-12-13T07:24:29.432Z,2.19
2023-12-13T07:25:35.695Z,2.19
2023-12-13T07:26:42.134Z,2.19
2023-12-13T07:27:48.674Z,2.20
2023-12-13T07:28:55.229Z,2.20
2023-12-13T07:30:01.849Z,2.18
2023-12-13T07:31:10.357Z,2.16
2023-12-13T07:32:17.453Z,2.16
2023-12-13T07:33:24.837Z,2.15
2023-12-13T07:34:31.454Z,2.15
2023-12-13T07:35:38.227Z,2.15
2023-12-13T07:36:49.583Z,2.15
2023-12-13T07:37:56.594Z,2.14
2023-12-13T07:39:04.410Z,2.14
2023-12-13T07:40:13.320Z,2.15
2023-12-13T07:41:20.730Z,2.14
2023-12-13T07:42:29.192Z,2.13
2023-12-13T07:43:35.529Z,2.13
2023-12-13T07:44:43.863Z,2.14
2023-12-13T07:45:53.258Z,2.15
2023-12-13T07:47:00.279Z,2.18
2023-12-13T07:48:17.979Z,2.19
2023-12-13T07:49:32.819Z,2.20
2023-12-13T07:50:39.692Z,2.21
2023-12-13T07:51:46.443Z,2.24
2023-12-13T07:52:52.968Z,2.23
2023-12-13T07:54:01.938Z,2.24
2023-12-13T07:55:10.149Z,2.24
2023-12-13T07:56:23.981Z,2.24
2023-12-13T07:57:34.231Z,2.25
2023-12-13T07:58:40.589Z,2.24
2023-12-13T07:59:47.186Z,2.25
2023-12-13T08:00:53.595Z,2.28
2023-12-13T08:01:59.840Z,2.30
2023-12-13T08:03:06.242Z,2.32
2023-12-13T08:04:12.783Z,2.35
2023-12-13T08:05:21.478Z,2.39
2023-12-13T08:06:28.150Z,2.42
2023-12-13T08:07:34.466Z,2.45
2023-12-13T08:08:41.076Z,2.49
2023-12-13T08:09:47.588Z,2.52
2023-12-13T08:10:54.676Z,2.55
2023-12-13T08:12:01.340Z,2.55
2023-12-13T08:13:07.963Z,2.56
2023-12-13T08:14:17.567Z,2.54
2023-12-13T08:15:24.408Z,2.53
2023-12-13T08:16:31.098Z,2.53
2023-12-13T08:17:37.887Z,2.53
2023-12-13T08:18:44.538Z,2.54
2023-12-13T08:19:51.601Z,2.54
2023-12-13T08:20:58.133Z,2.56
2023-12-13T08:22:05.068Z,2.57
2023-12-13T08:23:11.571Z,2.58
2023-12-13T08:24:18.521Z,2.58
2023-12-13T08:25:25.114Z,2.59
2023-12-13T08:26:31.430Z,2.61
2023-12-13T08:27:38.307Z,2.63
2023-12-13T08:28:44.889Z,2.65
2023-12-13T08:29:51.970Z,2.66
2023-12-13T08:31:08.750Z,2.66
2023-12-13T08:32:23.598Z,2.67
2023-12-13T08:33:29.970Z,2.68
2023-12-13T08:34:36.921Z,2.69
2023-12-13T08:35:43.695Z,2.72
2023-12-13T08:36:50.274Z,2.73
2023-12-13T08:37:56.996Z,2.75
2023-12-13T08:39:04.264Z,2.75
2023-12-13T08:40:12.534Z,2.76
2023-12-13T08:41:18.973Z,2.77
2023-12-13T08:42:30.643Z,2.79
2023-12-13T08:43:43.275Z,2.81
2023-12-13T08:44:50.390Z,2.82
2023-12-13T08:45:56.773Z,2.84
2023-12-13T08:47:03.523Z,2.90
2023-12-13T08:48:10.084Z,2.93
2023-12-13T08:49:16.588Z,2.97
2023-12-13T08:50:23.682Z,3.00
2023-12-13T08:51:30.252Z,3.02
2023-12-13T08:52:36.573Z,3.04
2023-12-13T08:53:42.778Z,3.06
2023-12-13T08:54:48.995Z,3.08
2023-12-13T08:55:55.280Z,3.08
2023-12-13T08:57:02.554Z,3.10
2023-12-13T08:58:08.896Z,3.11
2023-12-13T08:59:15.167Z,3.13
2023-12-13T09:00:22.746Z,3.16
2023-12-13T09:01:29.748Z,3.18
2023-12-13T09:02:36.011Z,3.22
2023-12-13T09:03:42.600Z,3.24
2023-12-13T09:04:49.799Z,3.27
2023-12-13T09:05:56.261Z,3.31
2023-12-13T09:07:02.642Z,3.35
2023-12-13T09:08:09.114Z,3.38
2023-12-13T09:09:15.961Z,3.39
2023-12-13T09:10:27.497Z,3.42
2023-12-13T09:11:33.600Z,3.42
2023-12-13T09:12:39.898Z,3.44
2023-12-13T09:13:46.375Z,3.45
2023-12-13T09:14:53.233Z,3.46
2023-12-13T09:15:59.771Z,3.46
2023-12-13T09:17:06.647Z,3.44
2023-12-13T09:18:13.226Z,3.45
2023-12-13T09:19:20.545Z,3.47
2023-12-13T09:20:33.060Z,3.48
2023-12-13T09:21:39.584Z,3.49
2023-12-13T09:22:46.255Z,3.53
2023-12-13T09:23:52.830Z,3.56
2023-12-13T09:24:59.986Z,3.59
2023-12-13T09:26:07.221Z,3.63
2023-12-13T09:27:13.691Z,3.68
2023-12-13T09:28:20.579Z,3.73
2023-12-13T09:29:26.835Z,3.80
2023-12-13T09:30:33.125Z,3.88
2023-12-13T09:31:39.987Z,3.95
2023-12-13T09:32:48.085Z,4.05
2023-12-13T09:33:54.951Z,4.13
2023-12-13T09:35:01.641Z,4.21
2023-12-13T09:36:10.575Z,4.31
2023-12-13T09:37:17.724Z,4.39
2023-12-13T09:38:24.258Z,4.48
2023-12-13T09:39:31.151Z,4.57
2023-12-13T09:40:37.927Z,4.66
2023-12-13T09:41:55.338Z,4.74
2023-12-13T09:43:03.151Z,4.82
2023-12-13T09:44:10.358Z,4.87
2023-12-13T09:45:22.548Z,4.94
2023-12-13T09:46:30.899Z,5.00
2023-12-13T09:47:39.393Z,5.05
2023-12-13T09:48:47.298Z,5.10
2023-12-13T09:49:55.065Z,5.15
2023-12-13T09:51:04.097Z,5.21
2023-12-13T09:52:09.593Z,5.28
2023-12-13T09:53:17.711Z,5.34
2023-12-13T09:54:24.475Z,5.41
2023-12-13T09:55:30.886Z,5.48
2023-12-13T09:56:38.183Z,5.57
2023-12-13T09:57:44.891Z,5.65
2023-12-13T09:58:51.869Z,5.70
2023-12-13T09:59:59.097Z,5.74
2023-12-13T10:01:17.443Z,5.79
2023-12-13T10:02:23.823Z,5.83
2023-12-13T10:03:32.820Z,5.88
2023-12-13T10:04:37.710Z,5.91
2023-12-13T10:05:48.769Z,5.94
2023-12-13T10:06:55.605Z,5.98
2023-12-13T10:08:05.329Z,6.02
2023-12-13T10:09:12.634Z,6.03
2023-12-13T10:10:19.726Z,6.04
2023-12-13T10:11:26.575Z,6.02
2023-12-13T10:12:35.000Z,5.99
2023-12-13T10:13:42.534Z,5.92
2023-12-13T10:14:49.050Z,5.85
2023-12-13T10:15:55.531Z,5.80
2023-12-13T10:17:11.810Z,5.78
2023-12-13T10:18:23.987Z,5.77
2023-12-13T10:19:30.799Z,5.75
2023-12-13T10:20:38.104Z,5.74
2023-12-13T10:21:47.378Z,5.74
2023-12-13T10:22:52.258Z,5.75
2023-12-13T10:23:58.787Z,5.77
2023-12-13T10:25:05.994Z,5.82
2023-12-13T10:26:13.512Z,5.88
2023-12-13T10:27:20.528Z,5.93
2023-12-13T10:28:27.377Z,5.98
2023-12-13T10:29:34.046Z,6.04
2023-12-13T10:30:41.678Z,6.08
2023-12-13T10:31:49.569Z,6.11
2023-12-13T10:32:56.228Z,6.15
2023-12-13T10:34:03.013Z,6.17
2023-12-13T10:35:10.717Z,6.19
2023-12-13T10:36:19.353Z,6.21
2023-12-13T10:37:28.424Z,6.24
2023-12-13T10:38:36.813Z,6.27
2023-12-13T10:39:45.911Z,6.31
2023-12-13T10:40:51.030Z,6.37
2023-12-13T10:42:00.554Z,6.43
2023-12-13T10:43:09.293Z,6.52
2023-12-13T10:44:20.746Z,6.61
2023-12-13T10:45:28.037Z,6.72
2023-12-13T10:46:37.826Z,6.80
2023-12-13T10:47:47.275Z,6.88
2023-12-13T10:48:55.186Z,6.94
2023-12-13T10:50:02.948Z,7.01
2023-12-13T10:51:10.987Z,7.07
2023-12-13T10:52:19.458Z,7.13
2023-12-13T10:53:28.054Z,7.17
2023-12-13T10:54:36.150Z,7.22
2023-12-13T10:55:44.568Z,7.25
2023-12-13T10:56:52.454Z,7.27
2023-12-13T10:57:59.445Z,7.28
2023-12-13T10:59:08.761Z,7.25
2023-12-13T11:00:18.142Z,7.26
2023-12-13T11:01:25.481Z,7.30
2023-12-13T11:02:37.524Z,7.33
2023-12-13T11:03:49.543Z,7.35
2023-12-13T11:04:57.108Z,7.35
2023-12-13T11:06:08.727Z,7.38
2023-12-13T11:07:21.820Z,7.43
2023-12-13T11:08:42.583Z,7.46
2023-12-13T11:09:57.042Z,7.43
2023-12-13T11:11:05.431Z,7.41
2023-12-13T11:12:20.035Z,7.40
2023-12-13T11:13:27.673Z,7.39
2023-12-13T11:14:36.343Z,7.41
2023-12-13T11:15:46.722Z,7.43
2023-12-13T11:16:53.842Z,7.45
2023-12-13T11:18:05.431Z,7.47
2023-12-13T11:19:20.112Z,7.50
2023-12-13T11:20:28.182Z,7.51
2023-12-13T11:21:36.090Z,7.55
2023-12-13T11:22:50.370Z,7.59
2023-12-13T11:24:01.569Z,7.66
2023-12-13T11:25:10.615Z,7.71
2023-12-13T11:26:25.234Z,7.75
2023-12-13T11:27:33.988Z,7.81
2023-12-13T11:28:40.549Z,7.87
2023-12-13T11:29:49.023Z,7.91
2023-12-13T11:30:57.254Z,7.95
2023-12-13T11:32:05.585Z,7.99
2023-12-13T11:33:15.798Z,8.04
2023-12-13T11:34:33.778Z,8.07
2023-12-13T11:35:41.881Z,8.09
2023-12-13T11:36:48.547Z,8.10
2023-12-13T11:37:56.403Z,8.11
2023-12-13T11:39:04.877Z,8.12
2023-12-13T11:40:13.476Z,8.12
2023-12-13T11:41:21.553Z,8.15
2023-12-13T11:42:27.781Z,8.18
2023-12-13T11:43:34.389Z,8.23
2023-12-13T11:44:43.891Z,8.27
2023-12-13T11:45:51.523Z,8.33
2023-12-13T11:46:56.782Z,8.35
2023-12-13T11:48:04.935Z,8.36
2023-12-13T11:49:11.680Z,8.40
2023-12-13T11:50:21.490Z,8.40
2023-12-13T11:51:28.708Z,8.42
2023-12-13T11:52:35.345Z,8.44
2023-12-13T11:53:42.095Z,8.44
2023-12-13T11:54:48.641Z,8.43
2023-12-13T11:55:56.638Z,8.40
2023-12-13T11:57:11.787Z,8.37
2023-12-13T11:58:18.565Z,8.32
2023-12-13T11:59:26.431Z,8.27
2023-12-13T12:00:33.599Z,8.22
2023-12-13T12:01:42.013Z,8.18
2023-12-13T12:02:52.903Z,8.10
2023-12-13T12:03:59.874Z,8.04
2023-12-13T12:05:09.754Z,8.00
2023-12-13T12:06:23.496Z,7.98
2023-12-13T12:07:30.604Z,7.98
2023-12-13T12:08:37.970Z,7.98
2023-12-13T12:09:49.590Z,8.01
2023-12-13T12:10:56.813Z,8.07
2023-12-13T12:12:05.049Z,8.12
2023-12-13T12:13:15.601Z,8.15
2023-12-13T12:14:26.204Z,8.18
2023-12-13T12:15:33.649Z,8.18
2023-12-13T12:16:41.100Z,8.18
2023-12-13T12:17:48.926Z,8.19
2023-12-13T12:18:56.809Z,8.18
2023-12-13T12:20:04.659Z,8.17
2023-12-13T12:21:12.237Z,8.14
2023-12-13T12:22:23.138Z,8.12
2023-12-13T12:23:32.992Z,8.10
2023-12-13T12:24:39.539Z,8.10
2023-12-13T12:25:47.535Z,8.11
2023-12-13T12:26:55.806Z,8.11
2023-12-13T12:28:02.848Z,8.10
2023-12-13T12:29:09.433Z,8.12
2023-12-13T12:30:18.775Z,8.12
2023-12-13T12:31:25.481Z,8.09
2023-12-13T12:32:32.002Z,8.06
2023-12-13T12:33:39.361Z,8.06
2023-12-13T12:34:50.846Z,8.05
2023-12-13T12:35:58.912Z,8.01
2023-12-13T12:37:06.123Z,7.98
2023-12-13T12:38:13.400Z,7.97
2023-12-13T12:39:20.283Z,7.94
2023-12-13T12:40:26.836Z,7.92
2023-12-13T12:41:35.836Z,7.89
2023-12-13T12:42:44.182Z,7.87
2023-12-13T12:43:51.522Z,7.84
2023-12-13T12:44:57.977Z,7.82
2023-12-13T12:46:05.776Z,7.82
2023-12-13T12:47:12.041Z,7.82
2023-12-13T12:48:19.486Z,7.82
2023-12-13T12:49:26.621Z,7.87
2023-12-13T12:50:33.321Z,7.92
2023-12-13T12:51:39.878Z,7.96
2023-12-13T12:52:46.413Z,7.98
2023-12-13T12:53:53.053Z,8.01
2023-12-13T12:54:59.344Z,8.02
2023-12-13T12:56:11.245Z,8.02
2023-12-13T12:57:19.349Z,8.02
2023-12-13T12:58:26.059Z,8.00
2023-12-13T12:59:32.638Z,7.98
2023-12-13T13:00:39.271Z,7.97
2023-12-13T13:01:46.629Z,7.97
2023-12-13T13:02:54.058Z,8.00
2023-12-13T13:04:01.003Z,8.04
2023-12-13T13:05:08.853Z,8.07
2023-12-13T13:06:16.093Z,8.10
2023-12-13T13:07:22.620Z,8.10
2023-12-13T13:08:30.045Z,8.10
2023-12-13T13:09:37.115Z,8.13
2023-12-13T13:10:43.929Z,8.15
2023-12-13T13:11:50.553Z,8.19
2023-12-13T13:12:57.716Z,8.21
2023-12-13T13:14:07.997Z,8.23
2023-12-13T13:15:15.115Z,8.25
2023-12-13T13:16:22.549Z,8.26
2023-12-13T13:17:31.713Z,8.27
2023-12-13T13:18:38.468Z,8.27
2023-12-13T13:19:45.125Z,8.27
2023-12-13T13:20:51.935Z,8.26
2023-12-13T13:22:03.203Z,8.29
2023-12-13T13:23:15.016Z,8.32
2023-12-13T13:24:23.454Z,8.35
2023-12-13T13:25:30.403Z,8.35
2023-12-13T13:26:38.071Z,8.33
2023-12-13T13:27:45.805Z,8.32
2023-12-13T13:28:52.824Z,8.30
2023-12-13T13:29:59.575Z,8.27
2023-12-13T13:31:06.748Z,8.22
2023-12-13T13:32:13.526Z,8.17
2023-12-13T13:33:20.171Z,8.11
2023-12-13T13:34:26.807Z,8.08
2023-12-13T13:35:33.244Z,8.06
2023-12-13T13:36:39.851Z,8.05
2023-12-13T13:37:47.250Z,8.04
2023-12-13T13:38:53.960Z,8.05
2023-12-13T13:40:00.341Z,8.05
2023-12-13T13:41:07.753Z,8.04
2023-12-13T13:42:14.345Z,8.02
2023-12-13T13:43:21.013Z,8.00
2023-12-13T13:44:27.788Z,7.99
2023-12-13T13:45:34.458Z,7.99
2023-12-13T13:46:41.570Z,7.95
2023-12-13T13:47:48.508Z,7.93
2023-12-13T13:48:57.369Z,7.91
2023-12-13T13:50:04.683Z,7.87
2023-12-13T13:51:11.041Z,7.82
2023-12-13T13:52:18.960Z,7.79
2023-12-13T13:53:29.509Z,7.77
2023-12-13T13:54:36.357Z,7.75
2023-12-13T13:55:43.000Z,7.72
2023-12-13T13:56:49.780Z,7.69
2023-12-13T13:57:56.490Z,7.66
2023-12-13T13:59:02.991Z,7.64
2023-12-13T14:00:12.992Z,7.62
2023-12-13T14:01:19.666Z,7.63
2023-12-13T14:02:33.752Z,7.63
2023-12-13T14:03:40.828Z,7.63
2023-12-13T14:04:47.478Z,7.63
2023-12-13T14:05:57.101Z,7.63
2023-12-13T14:07:05.749Z,7.61
2023-12-13T14:08:15.320Z,7.59
2023-12-13T14:09:22.732Z,7.58
2023-12-13T14:10:29.430Z,7.54
2023-12-13T14:11:36.219Z,7.51
2023-12-13T14:12:42.809Z,7.48
2023-12-13T14:13:51.644Z,7.46
2023-12-13T14:14:58.412Z,7.45
2023-12-13T14:16:05.603Z,7.45
2023-12-13T14:17:13.039Z,7.45
2023-12-13T14:18:21.589Z,7.45
2023-12-13T14:19:28.440Z,7.42
2023-12-13T14:20:34.969Z,7.40
2023-12-13T14:21:41.591Z,7.38
2023-12-13T14:22:48.277Z,7.35
2023-12-13T14:23:55.851Z,7.34
2023-12-13T14:25:02.496Z,7.34
2023-12-13T14:26:09.269Z,7.32
2023-12-13T14:27:16.016Z,7.30
2023-12-13T14:28:23.922Z,7.29
2023-12-13T14:29:31.797Z,7.30
2023-12-13T14:30:39.931Z,7.31
2023-12-13T14:31:47.076Z,7.32
2023-12-13T14:32:54.439Z,7.32
2023-12-13T14:34:01.409Z,7.33
2023-12-13T14:35:09.413Z,7.32
2023-12-13T14:36:16.102Z,7.30
2023-12-13T14:37:23.549Z,7.28
2023-12-13T14:38:32.811Z,7.26
2023-12-13T14:39:41.819Z,7.24
2023-12-13T14:40:48.680Z,7.24
2023-12-13T14:41:56.374Z,7.21
2023-12-13T14:43:07.985Z,7.19
2023-12-13T14:44:16.244Z,7.16
2023-12-13T14:45:22.998Z,7.14
2023-12-13T14:46:29.645Z,7.11
2023-12-13T14:47:36.300Z,7.10
2023-12-13T14:48:43.815Z,7.06
2023-12-13T14:49:51.018Z,7.03